createdAt,value
2023-05-25T00:03:05.071Z,13.54
2023-05-25T00:07:08.348Z,13.54
2023-05-25T00:11:11.588Z,13.52
2023-05-25T00:15:14.649Z,13.49
2023-05-25T00:19:19.102Z,13.43
2023-05-25T00:23:22.399Z,13.37
2023-05-25T00:27:25.427Z,13.32
2023-05-25T00:31:29.807Z,13.31
2023-05-25T00:35:34.357Z,13.29
2023-05-25T00:39:37.391Z,13.26
2023-05-25T00:43:40.362Z,13.23
2023-05-25T00:47:44.342Z,13.21
2023-05-25T00:51:50.478Z,13.19
2023-05-25T00:55:59.759Z,13.19
2023-05-25T01:00:08.903Z,13.21
2023-05-25T01:04:16.409Z,13.17
2023-05-25T01:08:23.498Z,13.14
2023-05-25T01:12:28.974Z,13.14
2023-05-25T01:16:32.928Z,13.10
2023-05-25T01:20:37.723Z,13.04
2023-05-25T01:24:47.565Z,13.00
2023-05-25T01:28:53.951Z,12.95
2023-05-25T01:32:58.221Z,12.91
2023-05-25T01:37:01.680Z,12.89
2023-05-25T01:41:06.149Z,12.85
2023-05-25T01:45:11.609Z,12.83
2023-05-25T01:49:21.976Z,12.78
2023-05-25T01:53:30.239Z,12.75
2023-05-25T01:57:37.588Z,12.69
2023-05-25T02:01:42.230Z,12.67
2023-05-25T02:05:46.980Z,12.66
2023-05-25T02:09:50.061Z,12.63
2023-05-25T02:13:54.657Z,12.61
2023-05-25T02:17:59.963Z,12.61
2023-05-25T02:22:06.457Z,12.57
2023-05-25T02:26:09.513Z,12.56
2023-05-25T02:30:14.666Z,12.53
2023-05-25T02:34:17.674Z,12.50
2023-05-25T02:38:22.061Z,12.47
2023-05-25T02:42:25.155Z,12.42
2023-05-25T02:46:29.615Z,12.41
2023-05-25T02:50:32.666Z,12.40
2023-05-25T02:54:40.344Z,12.41
2023-05-25T02:58:44.893Z,12.37
2023-05-25T03:02:51.536Z,12.36
2023-05-25T03:06:56.335Z,12.34
2023-05-25T03:10:59.324Z,12.31
2023-05-25T03:15:02.972Z,12.34
2023-05-25T03:19:07.507Z,12.36
2023-05-25T03:23:13.116Z,12.33
2023-05-25T03:27:16.497Z,12.35
2023-05-25T03:31:19.913Z,12.35
2023-05-25T03:35:25.037Z,12.36
2023-05-25T03:39:28.176Z,12.32
2023-05-25T03:43:32.070Z,12.31
2023-05-25T03:47:35.536Z,12.26
2023-05-25T03:51:39.963Z,12.24
2023-05-25T03:55:43.755Z,12.26
2023-05-25T03:59:48.191Z,12.26
2023-05-25T04:03:51.330Z,12.27
2023-05-25T04:07:56.209Z,12.30
2023-05-25T04:11:59.563Z,12.32
2023-05-25T04:16:03.198Z,12.31
2023-05-25T04:20:09.934Z,12.28
2023-05-25T04:24:14.888Z,12.30
2023-05-25T04:28:18.701Z,12.32
2023-05-25T04:32:37.561Z,12.35
2023-05-25T04:37:03.376Z,12.33
2023-05-25T04:41:09.622Z,12.37
2023-05-25T04:45:17.627Z,12.41
2023-05-25T04:49:21.509Z,12.45
2023-05-25T04:53:24.879Z,12.44
2023-05-25T04:57:31.587Z,12.50
2023-05-25T05:01:40.877Z,12.55
2023-05-25T05:05:46.683Z,12.56
2023-05-25T05:09:55.917Z,12.62
2023-05-25T05:14:01.229Z,12.68
2023-05-25T05:18:06.355Z,12.77
2023-05-25T05:22:09.936Z,12.88
2023-05-25T05:26:15.473Z,12.97
2023-05-25T05:30:20.260Z,13.14
2023-05-25T05:34:24.594Z,13.31
2023-05-25T05:38:28.178Z,13.46
2023-05-25T05:42:31.337Z,13.66
2023-05-25T05:46:36.391Z,13.81
2023-05-25T05:50:42.085Z,14.00
2023-05-25T05:54:46.461Z,14.22
2023-05-25T05:58:53.608Z,14.46
2023-05-25T06:02:58.620Z,14.64
2023-05-25T06:07:03.832Z,14.87
2023-05-25T06:11:07.331Z,14.98
2023-05-25T06:15:12.980Z,15.20
2023-05-25T06:19:18.466Z,15.35
2023-05-25T06:23:21.629Z,15.49
2023-05-25T06:27:24.849Z,15.64
2023-05-25T06:31:28.644Z,15.85
2023-05-25T06:35:33.256Z,16.00
2023-05-25T06:39:36.574Z,16.09
2023-05-25T06:43:40.018Z,16.13
2023-05-25T06:47:49.667Z,16.11
2023-05-25T06:51:54.462Z,16.18
2023-05-25T06:55:57.675Z,16.31
2023-05-25T07:00:00.854Z,16.39
2023-05-25T07:04:04.014Z,16.51
2023-05-25T07:08:08.650Z,16.58
2023-05-25T07:12:12.020Z,16.63
2023-05-25T07:16:15.237Z,16.80
2023-05-25T07:20:19.171Z,16.93
2023-05-25T07:24:23.741Z,17.07
2023-05-25T07:28:26.947Z,17.13
2023-05-25T07:32:30.179Z,17.23
2023-05-25T07:36:33.376Z,17.30
2023-05-25T07:40:38.005Z,17.40
2023-05-25T07:44:41.140Z,17.41
2023-05-25T07:48:44.263Z,17.48
2023-05-25T07:52:47.891Z,17.51
2023-05-25T07:56:52.526Z,17.63
2023-05-25T08:00:56.339Z,17.73
2023-05-25T08:05:00.019Z,17.84
2023-05-25T08:09:04.932Z,17.90
2023-05-25T08:13:09.657Z,18.06
2023-05-25T08:17:12.905Z,18.20
2023-05-25T08:21:16.033Z,18.29
2023-05-25T08:25:19.251Z,18.43
2023-05-25T08:29:23.824Z,18.62
2023-05-25T08:33:26.903Z,18.66
2023-05-25T08:37:30.631Z,18.75
2023-05-25T08:41:36.007Z,18.86
2023-05-25T08:45:49.361Z,18.86
2023-05-25T08:49:54.954Z,18.84
2023-05-25T08:54:03.431Z,18.82
2023-05-25T08:58:16.248Z,18.83
2023-05-25T09:02:31.424Z,18.96
2023-05-25T09:06:38.639Z,19.07
2023-05-25T09:10:42.329Z,19.08
2023-05-25T09:14:48.075Z,19.09
2023-05-25T09:18:54.140Z,19.16
2023-05-25T09:22:57.323Z,19.12
2023-05-25T09:27:01.093Z,19.16
2023-05-25T09:31:04.241Z,19.14
2023-05-25T09:35:13.081Z,19.17
2023-05-25T09:39:17.171Z,19.30
2023-05-25T09:43:36.349Z,19.40
2023-05-25T09:47:43.512Z,19.49
2023-05-25T09:51:49.183Z,19.57
2023-05-25T09:55:54.459Z,19.71
2023-05-25T09:59:58.216Z,19.70
2023-05-25T10:04:05.248Z,19.66
2023-05-25T10:08:11.695Z,19.79
2023-05-25T10:12:18.836Z,19.86
2023-05-25T10:16:29.703Z,19.92
2023-05-25T10:20:35.288Z,19.96
2023-05-25T10:24:46.632Z,20.07
2023-05-25T10:28:52.519Z,20.08
2023-05-25T10:32:57.120Z,20.05
2023-05-25T10:37:01.698Z,20.10
2023-05-25T10:41:07.166Z,20.15
2023-05-25T10:45:11.465Z,20.18
2023-05-25T10:49:14.501Z,20.17
2023-05-25T10:53:17.571Z,20.24
2023-05-25T10:57:24.103Z,20.31
2023-05-25T11:01:27.321Z,20.33
2023-05-25T11:05:41.577Z,20.41
2023-05-25T11:09:57.264Z,20.44
2023-05-25T11:14:03.446Z,20.51
2023-05-25T11:18:07.092Z,20.46
2023-05-25T11:22:20.479Z,20.52
2023-05-25T11:26:24.820Z,20.56
2023-05-25T11:30:29.618Z,20.60
2023-05-25T11:34:33.256Z,20.59
2023-05-25T11:38:56.327Z,20.58
2023-05-25T11:43:09.270Z,20.66
2023-05-25T11:47:14.589Z,20.65
2023-05-25T11:51:17.665Z,20.69
2023-05-25T11:55:22.578Z,20.83
2023-05-25T11:59:27.703Z,20.81
2023-05-25T12:03:32.934Z,20.84
2023-05-25T12:07:36.727Z,20.82
2023-05-25T12:11:45.681Z,20.93
2023-05-25T12:15:48.909Z,20.92
2023-05-25T12:19:52.202Z,20.99
2023-05-25T12:23:55.874Z,20.96
2023-05-25T12:28:13.139Z,20.95
2023-05-25T12:32:16.533Z,20.97
2023-05-25T12:36:19.676Z,21.05
2023-05-25T12:40:24.687Z,21.22
2023-05-25T12:44:31.549Z,21.22
2023-05-25T12:48:34.646Z,21.26
2023-05-25T12:52:38.954Z,21.34
2023-05-25T12:56:55.016Z,21.33
2023-05-25T13:00:59.560Z,21.29
2023-05-25T13:05:02.680Z,21.28
2023-05-25T13:09:06.166Z,21.31
2023-05-25T13:13:09.152Z,21.33
2023-05-25T13:17:13.877Z,21.37
2023-05-25T13:21:17.168Z,21.32
2023-05-25T13:25:22.221Z,21.34
2023-05-25T13:29:25.705Z,21.29
2023-05-25T13:33:30.172Z,21.30
2023-05-25T13:37:33.966Z,21.28
2023-05-25T13:41:36.986Z,21.25
2023-05-25T13:45:39.991Z,21.29
2023-05-25T13:49:44.350Z,21.38
2023-05-25T13:53:48.941Z,21.35
2023-05-25T13:57:52.926Z,21.36
2023-05-25T14:01:56.607Z,21.37
2023-05-25T14:06:01.067Z,21.38
2023-05-25T14:10:04.606Z,21.39
2023-05-25T14:14:13.855Z,21.35
2023-05-25T14:18:22.961Z,21.37
2023-05-25T14:22:27.993Z,21.35
2023-05-25T14:26:30.976Z,21.38
2023-05-25T14:30:33.918Z,21.42
2023-05-25T14:34:36.915Z,21.41
2023-05-25T14:38:41.237Z,21.40
2023-05-25T14:42:44.213Z,21.35
2023-05-25T14:46:47.227Z,21.34
2023-05-25T14:50:50.434Z,21.26
2023-05-25T14:54:54.749Z,21.24
2023-05-25T14:58:57.668Z,21.25
2023-05-25T15:03:00.845Z,21.20
2023-05-25T15:07:03.904Z,21.13
2023-05-25T15:11:08.620Z,21.12
2023-05-25T15:15:12.302Z,21.07
2023-05-25T15:19:17.729Z,20.97
2023-05-25T15:23:21.186Z,20.94
2023-05-25T15:27:26.260Z,20.93
2023-05-25T15:31:29.249Z,20.91
2023-05-25T15:35:32.525Z,20.92
2023-05-25T15:39:35.632Z,20.92
2023-05-25T15:43:39.954Z,20.93
2023-05-25T15:47:42.923Z,20.92
2023-05-25T15:51:46.238Z,20.89
2023-05-25T15:55:49.384Z,20.87
2023-05-25T15:59:53.715Z,20.83
2023-05-25T16:03:56.694Z,20.81
2023-05-25T16:07:59.684Z,20.80
2023-05-25T16:12:02.795Z,20.78
2023-05-25T16:16:07.973Z,20.75
2023-05-25T16:20:11.454Z,20.74
2023-05-25T16:24:14.524Z,20.71
2023-05-25T16:28:17.616Z,20.69
2023-05-25T16:32:21.946Z,20.68
2023-05-25T16:36:26.670Z,20.61
2023-05-25T16:40:30.211Z,20.56
2023-05-25T16:44:33.133Z,20.55
2023-05-25T16:48:37.437Z,20.51
2023-05-25T16:52:40.690Z,20.49
2023-05-25T16:56:43.645Z,20.49
2023-05-25T17:00:46.606Z,20.48
2023-05-25T17:04:51.010Z,20.45
2023-05-25T17:08:55.671Z,20.45
2023-05-25T17:12:58.665Z,20.45
2023-05-25T17:17:01.652Z,20.44
2023-05-25T17:21:06.211Z,20.44
2023-05-25T17:25:10.004Z,20.39
2023-05-25T17:29:13.065Z,20.38
2023-05-25T17:33:16.204Z,20.37
2023-05-25T17:37:21.262Z,20.36
2023-05-25T17:41:24.335Z,20.32
2023-05-25T17:45:27.590Z,20.26
2023-05-25T17:49:30.600Z,20.24
2023-05-25T17:53:34.880Z,20.21
2023-05-25T17:57:37.912Z,20.17
2023-05-25T18:01:41.790Z,20.16
2023-05-25T18:05:45.102Z,20.16
2023-05-25T18:09:49.728Z,20.11
2023-05-25T18:13:52.684Z,20.09
2023-05-25T18:17:55.725Z,20.04
2023-05-25T18:21:58.941Z,20.04
2023-05-25T18:26:04.640Z,20.00
2023-05-25T18:30:09.051Z,19.94
2023-05-25T18:34:12.146Z,19.89
2023-05-25T18:38:15.189Z,19.84
2023-05-25T18:42:19.496Z,19.77
2023-05-25T18:46:22.964Z,19.68
2023-05-25T18:50:25.933Z,19.61
2023-05-25T18:54:29.664Z,19.54
2023-05-25T18:58:33.985Z,19.47
2023-05-25T19:02:38.611Z,19.38
2023-05-25T19:06:41.665Z,19.34
2023-05-25T19:10:44.693Z,19.24
2023-05-25T19:14:49.104Z,19.20
2023-05-25T19:18:52.037Z,19.16
2023-05-25T19:22:55.164Z,19.13
2023-05-25T19:26:58.113Z,19.10
2023-05-25T19:31:02.548Z,19.06
2023-05-25T19:35:05.971Z,19.00
2023-05-25T19:39:08.942Z,18.96
2023-05-25T19:43:12.008Z,18.91
2023-05-25T19:47:17.483Z,18.82
2023-05-25T19:51:20.618Z,18.76
2023-05-25T19:55:23.906Z,18.66
2023-05-25T19:59:28.083Z,18.59
2023-05-25T20:03:32.964Z,18.53
2023-05-25T20:07:36.277Z,18.45
2023-05-25T20:11:39.377Z,18.35
2023-05-25T20:15:42.420Z,18.26
2023-05-25T20:19:47.976Z,18.16
2023-05-25T20:23:51.714Z,18.08
2023-05-25T20:27:54.653Z,17.98
2023-05-25T20:31:57.728Z,17.87
2023-05-25T20:36:02.112Z,17.77
2023-05-25T20:40:06.716Z,17.73
2023-05-25T20:44:10.107Z,17.65
2023-05-25T20:48:13.109Z,17.60
2023-05-25T20:52:17.494Z,17.54
2023-05-25T20:56:20.468Z,17.46
2023-05-25T21:00:23.765Z,17.40
2023-05-25T21:04:26.761Z,17.29
2023-05-25T21:08:31.969Z,17.16
2023-05-25T21:12:35.540Z,17.11
2023-05-25T21:16:38.648Z,17.08
2023-05-25T21:20:41.830Z,17.01
2023-05-25T21:24:46.427Z,16.96
2023-05-25T21:28:49.406Z,16.91
2023-05-25T21:32:52.817Z,16.85
2023-05-25T21:36:56.137Z,16.79
2023-05-25T21:41:00.496Z,16.71
2023-05-25T21:45:03.726Z,16.64
2023-05-25T21:49:06.746Z,16.59
2023-05-25T21:53:09.717Z,16.54
2023-05-25T21:57:13.994Z,16.49
2023-05-25T22:01:17.118Z,16.43
2023-05-25T22:05:20.157Z,16.38
2023-05-25T22:09:23.115Z,16.30
2023-05-25T22:13:27.409Z,16.25
2023-05-25T22:17:30.449Z,16.16
2023-05-25T22:21:33.452Z,16.09
2023-05-25T22:25:36.618Z,16.02
2023-05-25T22:29:41.130Z,15.96
2023-05-25T22:33:44.267Z,15.90
2023-05-25T22:37:47.435Z,15.83
2023-05-25T22:41:50.405Z,15.79
2023-05-25T22:45:55.101Z,15.70
2023-05-25T22:49:58.038Z,15.62
2023-05-25T22:54:00.997Z,15.56
2023-05-25T22:58:04.023Z,15.50
2023-05-25T23:02:08.508Z,15.42
2023-05-25T23:06:11.607Z,15.35
2023-05-25T23:10:14.618Z,15.27
2023-05-25T23:14:17.621Z,15.17
2023-05-25T23:18:21.934Z,15.11
2023-05-25T23:22:24.920Z,15.06
2023-05-25T23:26:28.105Z,14.98
2023-05-25T23:30:31.104Z,14.97
2023-05-25T23:34:35.841Z,14.96
2023-05-25T23:38:38.804Z,14.90
2023-05-25T23:42:45.513Z,14.87
2023-05-25T23:46:48.585Z,14.82
2023-05-25T23:50:52.960Z,14.76
2023-05-25T23:54:55.955Z,14.68
2023-05-25T23:58:59.010Z,14.66
